Alhani — 5VBT5 — position and weather

sailwx.info

Track history (hours):
 
Tides and Currents Weather Stations Pressure Air Temp Water Temp Dewpoint Dewpoint Depression Visibility Wind Speed Wind Dir Waves Ship Positions

Alhani

Last reported at 2018-Jun-18 11:40 UTC. Time now 2018-Jun-24 09:19 UTC.
Position N 39°47' E 025°46'.

Length 89 m; draft 7.1 m.

Type: Cargo ship. MMSI: 671302936.

Date/timePositionNaut miles runAvg speedWind from/ knotsBaromVisibWave heightAir tempDewpointWater temp
2018-Jun-18 11:40N 39°47' E 025°46'358 8.3
2018-Jun-16 16:25N 44°55' E 029°52'510.2
2018-Jun-16 15:58N 45°00' E 029°52'4 8.7
2018-Jun-16 15:30N 45°04' E 029°53'4 7.0
2018-Jun-16 15:00N 45°07' E 029°50'1 0.0
2018-Jun-15 21:08N 45°08' E 029°50'0 0.0
2018-Jun-15 20:53N 45°08' E 029°50'0 0.0
2018-Jun-15 20:29N 45°08' E 029°50'0 0.0
2018-Jun-15 19:59N 45°08' E 029°50'0 0.7
2018-Jun-15 19:28N 45°08' E 029°50'1 0.9
2018-Jun-15 18:54N 45°08' E 029°50'0 0.0
2018-Jun-15 18:24N 45°08' E 029°50'0 0.0
2018-Jun-15 17:48N 45°08' E 029°50'0 0.0
2018-Jun-15 17:18N 45°08' E 029°50'69 3.1
2018-Jun-14 19:00N 45°27' E 028°16'  
2018-Jun-11 04:34N 45°11' E 029°22'1 6.0
2018-Jun-11 04:25N 45°10' E 029°23'4 6.5
2018-Jun-11 03:52N 45°10' E 029°28'2 6.8
2018-Jun-11 03:30N 45°11' E 029°32'3 6.9
2018-Jun-11 03:00N 45°10' E 029°36'2 4.4
2018-Jun-11 02:29N 45°09' E 029°39'0 0.0
2018-Jun-11 01:56N 45°09' E 029°39'0 0.0
2018-Jun-11 01:29N 45°09' E 029°39'0 0.0
2018-Jun-11 00:50N 45°09' E 029°39'0 0.0
2018-Jun-11 00:23N 45°09' E 029°39'0 0.0
2018-Jun-10 23:59N 45°09' E 029°39'0 0.0
2018-Jun-10 23:26N 45°09' E 029°39'0 0.0
2018-Jun-10 21:35N 45°09' E 029°39'0 0.0
2018-Jun-10 21:05N 45°09' E 029°39'0 0.0
2018-Jun-10 20:59N 45°09' E 029°39'0 0.0
2018-Jun-10 20:26N 45°09' E 029°39'0 0.0
2018-Jun-10 19:56N 45°09' E 029°39'0 0.0
2018-Jun-10 19:29N 45°09' E 029°39'0 0.0
2018-Jun-10 18:59N 45°09' E 029°39'0 0.0
2018-Jun-10 18:29N 45°09' E 029°39'0 0.0
2018-Jun-10 17:53N 45°09' E 029°39'0 0.0
2018-Jun-10 17:29N 45°09' E 029°39'0 0.0
2018-Jun-10 16:53N 45°09' E 029°39'7 0.6
2018-Jun-10 05:31N 45°09' E 029°49'0 0.0
2018-Jun-10 05:28N 45°09' E 029°49'0 0.0
2018-Jun-10 04:58N 45°09' E 029°49'0 0.0
2018-Jun-10 04:28N 45°09' E 029°49'0 0.0
2018-Jun-10 03:28N 45°09' E 029°49'0 0.0
2018-Jun-10 02:58N 45°09' E 029°49'0 0.0
2018-Jun-10 02:28N 45°09' E 029°49'0 0.0
2018-Jun-10 01:58N 45°09' E 029°49'1 2.1
2018-Jun-10 01:30N 45°08' E 029°50'4 8.9
2018-Jun-10 01:00N 45°04' E 029°52'611.2
2018-Jun-10 00:30N 44°58' E 029°53'611.3
2018-Jun-10 00:00N 44°53' E 029°53'611.3
2018-Jun-09 23:30N 44°47' E 029°53'611.6
2018-Jun-09 23:00N 44°41' E 029°53'611.6
2018-Jun-09 22:30N 44°35' E 029°53'611.7
2018-Jun-09 22:00N 44°30' E 029°51'611.7
2018-Jun-09 21:30N 44°24' E 029°50'611.3
2018-Jun-09 21:00N 44°18' E 029°49'611.4
2018-Jun-09 20:30N 44°13' E 029°48'611.6
2018-Jun-09 20:00N 44°07' E 029°47'611.5
2018-Jun-09 19:30N 44°01' E 029°46'611.5
2018-Jun-09 19:00N 43°55' E 029°45'611.6
2018-Jun-09 18:30N 43°50' E 029°43'611.6
2018-Jun-09 18:00N 43°44' E 029°42'611.6
2018-Jun-09 17:30N 43°38' E 029°41'611.5
2018-Jun-09 17:00N 43°33' E 029°39'711.3
2018-Jun-09 16:25N 43°26' E 029°38'511.4
2018-Jun-09 15:58N 43°21' E 029°37'1111.3
2018-Jun-09 15:00N 43°10' E 029°35'611.4
2018-Jun-09 14:30N 43°05' E 029°34'611.5
2018-Jun-09 14:00N 42°59' E 029°33'611.4
2018-Jun-09 13:30N 42°53' E 029°32'611.5
2018-Jun-09 13:00N 42°47' E 029°31'611.6
2018-Jun-09 12:30N 42°42' E 029°30'611.4
2018-Jun-09 12:00N 42°36' E 029°28'611.4
2018-Jun-09 11:30N 42°31' E 029°27'611.4
2018-Jun-09 11:00N 42°25' E 029°25'611.4
2018-Jun-09 10:30N 42°19' E 029°23'811.4
2018-Jun-09 09:46N 42°11' E 029°21'611.2
2018-Jun-09 09:16N 42°06' E 029°20'511.3
2018-Jun-09 08:49N 42°01' E 029°19'411.5
2018-Jun-09 08:30N 41°57' E 029°19'611.4
2018-Jun-09 08:00N 41°51' E 029°18'611.3
2018-Jun-09 07:30N 41°46' E 029°17'611.2
2018-Jun-09 07:00N 41°40' E 029°16'611.2
2018-Jun-09 06:30N 41°35' E 029°15'611.4
2018-Jun-09 06:00N 41°29' E 029°14'911.3
2018-Jun-09 05:12N 41°20' E 029°13'511.2
2018-Jun-09 04:47N 41°16' E 029°10'9 9.9
2018-Jun-09 03:52N 41°08' E 029°04'4 9.0
2018-Jun-09 03:24N 41°04' E 029°03'3 8.7
2018-Jun-09 03:00N 41°01' E 029°00'4 8.5
2018-Jun-09 02:30N 40°57' E 028°59'5 9.3
2018-Jun-09 02:00N 40°54' E 028°56'1511.0
2018-Jun-09 00:40N 40°48' E 028°37'8 1.2
2018-Jun-08 17:54N 40°41' E 028°42'  
Track history (hours):
 
Tides and Currents Weather Stations Pressure Air Temp Water Temp Dewpoint Dewpoint Depression Visibility Wind Speed Wind Dir Waves Ship Positions

Alhani

Last reported at 2018-Jun-18 11:40 UTC. Time now 2018-Jun-24 09:19 UTC.
Position N 39°47' E 025°46'.

Length 89 m; draft 7.1 m.

Type: Cargo ship. MMSI: 671302936.

Date/timePositionNaut miles runAvg speedWind from/ knotsBaromVisibWave heightAir tempDewpointWater temp
2018-Jun-18 11:40N 39°47' E 025°46'358 8.3
2018-Jun-16 16:25N 44°55' E 029°52'510.2
2018-Jun-16 15:58N 45°00' E 029°52'4 8.7
2018-Jun-16 15:30N 45°04' E 029°53'4 7.0
2018-Jun-16 15:00N 45°07' E 029°50'1 0.0
2018-Jun-15 21:08N 45°08' E 029°50'0 0.0
2018-Jun-15 20:53N 45°08' E 029°50'0 0.0
2018-Jun-15 20:29N 45°08' E 029°50'0 0.0
2018-Jun-15 19:59N 45°08' E 029°50'0 0.7
2018-Jun-15 19:28N 45°08' E 029°50'1 0.9
2018-Jun-15 18:54N 45°08' E 029°50'0 0.0
2018-Jun-15 18:24N 45°08' E 029°50'0 0.0
2018-Jun-15 17:48N 45°08' E 029°50'0 0.0
2018-Jun-15 17:18N 45°08' E 029°50'69 3.1
2018-Jun-14 19:00N 45°27' E 028°16'  
2018-Jun-11 04:34N 45°11' E 029°22'1 6.0
2018-Jun-11 04:25N 45°10' E 029°23'4 6.5
2018-Jun-11 03:52N 45°10' E 029°28'2 6.8
2018-Jun-11 03:30N 45°11' E 029°32'3 6.9
2018-Jun-11 03:00N 45°10' E 029°36'2 4.4
2018-Jun-11 02:29N 45°09' E 029°39'0 0.0
2018-Jun-11 01:56N 45°09' E 029°39'0 0.0
2018-Jun-11 01:29N 45°09' E 029°39'0 0.0
2018-Jun-11 00:50N 45°09' E 029°39'0 0.0
2018-Jun-11 00:23N 45°09' E 029°39'0 0.0
2018-Jun-10 23:59N 45°09' E 029°39'0 0.0
2018-Jun-10 23:26N 45°09' E 029°39'0 0.0
2018-Jun-10 21:35N 45°09' E 029°39'0 0.0
2018-Jun-10 21:05N 45°09' E 029°39'0 0.0
2018-Jun-10 20:59N 45°09' E 029°39'0 0.0
2018-Jun-10 20:26N 45°09' E 029°39'0 0.0
2018-Jun-10 19:56N 45°09' E 029°39'0 0.0
2018-Jun-10 19:29N 45°09' E 029°39'0 0.0
2018-Jun-10 18:59N 45°09' E 029°39'0 0.0
2018-Jun-10 18:29N 45°09' E 029°39'0 0.0
2018-Jun-10 17:53N 45°09' E 029°39'0 0.0
2018-Jun-10 17:29N 45°09' E 029°39'0 0.0
2018-Jun-10 16:53N 45°09' E 029°39'7 0.6
2018-Jun-10 05:31N 45°09' E 029°49'0 0.0
2018-Jun-10 05:28N 45°09' E 029°49'0 0.0
2018-Jun-10 04:58N 45°09' E 029°49'0 0.0
2018-Jun-10 04:28N 45°09' E 029°49'0 0.0
2018-Jun-10 03:28N 45°09' E 029°49'0 0.0
2018-Jun-10 02:58N 45°09' E 029°49'0 0.0
2018-Jun-10 02:28N 45°09' E 029°49'0 0.0
2018-Jun-10 01:58N 45°09' E 029°49'1 2.1
2018-Jun-10 01:30N 45°08' E 029°50'4 8.9
2018-Jun-10 01:00N 45°04' E 029°52'611.2
2018-Jun-10 00:30N 44°58' E 029°53'611.3
2018-Jun-10 00:00N 44°53' E 029°53'611.3
2018-Jun-09 23:30N 44°47' E 029°53'611.6
2018-Jun-09 23:00N 44°41' E 029°53'611.6
2018-Jun-09 22:30N 44°35' E 029°53'611.7
2018-Jun-09 22:00N 44°30' E 029°51'611.7
2018-Jun-09 21:30N 44°24' E 029°50'611.3
2018-Jun-09 21:00N 44°18' E 029°49'611.4
2018-Jun-09 20:30N 44°13' E 029°48'611.6
2018-Jun-09 20:00N 44°07' E 029°47'611.5
2018-Jun-09 19:30N 44°01' E 029°46'611.5
2018-Jun-09 19:00N 43°55' E 029°45'611.6
2018-Jun-09 18:30N 43°50' E 029°43'611.6
2018-Jun-09 18:00N 43°44' E 029°42'611.6
2018-Jun-09 17:30N 43°38' E 029°41'611.5
2018-Jun-09 17:00N 43°33' E 029°39'711.3
2018-Jun-09 16:25N 43°26' E 029°38'511.4
2018-Jun-09 15:58N 43°21' E 029°37'1111.3
2018-Jun-09 15:00N 43°10' E 029°35'611.4
2018-Jun-09 14:30N 43°05' E 029°34'611.5
2018-Jun-09 14:00N 42°59' E 029°33'611.4
2018-Jun-09 13:30N 42°53' E 029°32'611.5
2018-Jun-09 13:00N 42°47' E 029°31'611.6
2018-Jun-09 12:30N 42°42' E 029°30'611.4
2018-Jun-09 12:00N 42°36' E 029°28'611.4
2018-Jun-09 11:30N 42°31' E 029°27'611.4
2018-Jun-09 11:00N 42°25' E 029°25'611.4
2018-Jun-09 10:30N 42°19' E 029°23'811.4
2018-Jun-09 09:46N 42°11' E 029°21'611.2
2018-Jun-09 09:16N 42°06' E 029°20'511.3
2018-Jun-09 08:49N 42°01' E 029°19'411.5
2018-Jun-09 08:30N 41°57' E 029°19'611.4
2018-Jun-09 08:00N 41°51' E 029°18'611.3
2018-Jun-09 07:30N 41°46' E 029°17'611.2
2018-Jun-09 07:00N 41°40' E 029°16'611.2
2018-Jun-09 06:30N 41°35' E 029°15'611.4
2018-Jun-09 06:00N 41°29' E 029°14'911.3
2018-Jun-09 05:12N 41°20' E 029°13'511.2
2018-Jun-09 04:47N 41°16' E 029°10'9 9.9
2018-Jun-09 03:52N 41°08' E 029°04'4 9.0
2018-Jun-09 03:24N 41°04' E 029°03'3 8.7
2018-Jun-09 03:00N 41°01' E 029°00'4 8.5
2018-Jun-09 02:30N 40°57' E 028°59'5 9.3
2018-Jun-09 02:00N 40°54' E 028°56'1511.0
2018-Jun-09 00:40N 40°48' E 028°37'8 1.2
2018-Jun-08 17:54N 40°41' E 028°42'  

Dump ship's entire track history